sensor_id;sensor_type;location;lat;lon;timestamp;P1;durP1;ratioP1;P2;durP2;ratioP2
53036;SDS011;38924;52.134;4.666;2023-05-01T00:00:54;6.18;;;4.90;;
53036;SDS011;38924;52.134;4.666;2023-05-01T00:03:22;7.18;;;5.18;;
53036;SDS011;38924;52.134;4.666;2023-05-01T00:05:48;5.10;;;4.60;;
53036;SDS011;38924;52.134;4.666;2023-05-01T00:08:14;8.13;;;5.22;;
53036;SDS011;38924;52.134;4.666;2023-05-01T00:10:40;7.80;;;4.95;;
53036;SDS011;38924;52.134;4.666;2023-05-01T00:13:05;5.40;;;4.57;;
53036;SDS011;38924;52.134;4.666;2023-05-01T00:15:31;12.68;;;4.88;;
53036;SDS011;38924;52.134;4.666;2023-05-01T00:17:57;8.98;;;5.25;;
53036;SDS011;38924;52.134;4.666;2023-05-01T00:20:26;6.78;;;4.57;;
53036;SDS011;38924;52.134;4.666;2023-05-01T00:22:52;5.97;;;4.28;;
53036;SDS011;38924;52.134;4.666;2023-05-01T00:25:18;7.13;;;4.45;;
53036;SDS011;38924;52.134;4.666;2023-05-01T00:27:43;7.50;;;5.10;;
53036;SDS011;38924;52.134;4.666;2023-05-01T00:30:09;10.77;;;4.78;;
53036;SDS011;38924;52.134;4.666;2023-05-01T00:32:35;8.15;;;4.82;;
53036;SDS011;38924;52.134;4.666;2023-05-01T00:35:01;6.95;;;5.05;;
53036;SDS011;38924;52.134;4.666;2023-05-01T00:37:27;5.60;;;4.78;;
53036;SDS011;38924;52.134;4.666;2023-05-01T00:39:52;5.43;;;4.57;;
53036;SDS011;38924;52.134;4.666;2023-05-01T00:42:18;7.90;;;4.72;;
53036;SDS011;38924;52.134;4.666;2023-05-01T00:44:44;6.60;;;4.88;;
53036;SDS011;38924;52.134;4.666;2023-05-01T00:47:12;6.38;;;4.18;;
53036;SDS011;38924;52.134;4.666;2023-05-01T00:49:40;9.68;;;4.70;;
53036;SDS011;38924;52.134;4.666;2023-05-01T00:52:06;5.60;;;4.10;;
53036;SDS011;38924;52.134;4.666;2023-05-01T00:54:34;12.13;;;5.00;;
53036;SDS011;38924;52.134;4.666;2023-05-01T00:57:00;9.07;;;4.53;;
53036;SDS011;38924;52.134;4.666;2023-05-01T00:59:26;6.03;;;5.03;;
53036;SDS011;38924;52.134;4.666;2023-05-01T01:01:53;6.75;;;5.13;;
53036;SDS011;38924;52.134;4.666;2023-05-01T01:04:20;9.45;;;4.80;;
53036;SDS011;38924;52.134;4.666;2023-05-01T01:12:23;6.55;;;4.55;;
53036;SDS011;38924;52.134;4.666;2023-05-01T01:15:08;10.73;;;5.00;;
53036;SDS011;38924;52.134;4.666;2023-05-01T01:17:48;7.45;;;4.55;;
53036;SDS011;38924;52.134;4.666;2023-05-01T01:20:37;6.45;;;4.65;;
53036;SDS011;38924;52.134;4.666;2023-05-01T01:36:15;5.85;;;4.40;;
53036;SDS011;38924;52.134;4.666;2023-05-01T01:38:45;5.30;;;4.32;;
53036;SDS011;38924;52.134;4.666;2023-05-01T01:41:19;5.85;;;4.50;;
53036;SDS011;38924;52.134;4.666;2023-05-01T01:43:49;7.75;;;5.38;;
53036;SDS011;38924;52.134;4.666;2023-05-01T01:46:19;7.88;;;5.20;;
53036;SDS011;38924;52.134;4.666;2023-05-01T01:48:46;8.88;;;5.15;;
53036;SDS011;38924;52.134;4.666;2023-05-01T01:51:17;8.60;;;4.75;;
53036;SDS011;38924;52.134;4.666;2023-05-01T01:53:44;6.28;;;4.72;;
53036;SDS011;38924;52.134;4.666;2023-05-01T01:56:10;5.70;;;4.68;;
53036;SDS011;38924;52.134;4.666;2023-05-01T01:58:37;8.13;;;5.18;;
53036;SDS011;38924;52.134;4.666;2023-05-01T02:01:04;6.75;;;4.63;;
53036;SDS011;38924;52.134;4.666;2023-05-01T02:03:30;8.35;;;4.75;;
53036;SDS011;38924;52.134;4.666;2023-05-01T02:05:57;7.18;;;5.05;;
53036;SDS011;38924;52.134;4.666;2023-05-01T02:08:28;6.32;;;4.82;;
53036;SDS011;38924;52.134;4.666;2023-05-01T02:10:55;7.45;;;4.55;;
53036;SDS011;38924;52.134;4.666;2023-05-01T02:13:27;6.00;;;4.88;;
53036;SDS011;38924;52.134;4.666;2023-05-01T02:15:54;9.15;;;5.10;;
53036;SDS011;38924;52.134;4.666;2023-05-01T02:18:20;6.55;;;4.53;;
53036;SDS011;38924;52.134;4.666;2023-05-01T02:20:47;6.25;;;4.28;;
53036;SDS011;38924;52.134;4.666;2023-05-01T02:23:12;11.75;;;5.25;;
53036;SDS011;38924;52.134;4.666;2023-05-01T02:25:39;9.10;;;4.78;;
53036;SDS011;38924;52.134;4.666;2023-05-01T02:28:07;10.07;;;4.85;;
53036;SDS011;38924;52.134;4.666;2023-05-01T02:30:34;6.32;;;4.32;;
53036;SDS011;38924;52.134;4.666;2023-05-01T02:33:00;9.55;;;5.18;;
53036;SDS011;38924;52.134;4.666;2023-05-01T02:35:26;10.82;;;5.75;;
53036;SDS011;38924;52.134;4.666;2023-05-01T02:37:52;9.25;;;5.05;;
53036;SDS011;38924;52.134;4.666;2023-05-01T02:40:20;8.55;;;4.82;;
53036;SDS011;38924;52.134;4.666;2023-05-01T02:42:47;9.45;;;4.32;;
53036;SDS011;38924;52.134;4.666;2023-05-01T02:45:18;5.82;;;4.25;;
53036;SDS011;38924;52.134;4.666;2023-05-01T02:47:49;4.68;;;4.03;;
53036;SDS011;38924;52.134;4.666;2023-05-01T02:50:16;17.40;;;6.20;;
53036;SDS011;38924;52.134;4.666;2023-05-01T02:52:42;8.43;;;5.13;;
53036;SDS011;38924;52.134;4.666;2023-05-01T02:55:32;7.80;;;4.07;;
53036;SDS011;38924;52.134;4.666;2023-05-01T02:57:58;6.75;;;4.88;;
53036;SDS011;38924;52.134;4.666;2023-05-01T03:00:24;8.38;;;4.35;;
53036;SDS011;38924;52.134;4.666;2023-05-01T03:02:51;7.05;;;4.95;;
53036;SDS011;38924;52.134;4.666;2023-05-01T03:05:16;7.50;;;4.60;;
53036;SDS011;38924;52.134;4.666;2023-05-01T03:07:45;11.13;;;5.45;;
53036;SDS011;38924;52.134;4.666;2023-05-01T03:10:11;8.70;;;4.82;;
53036;SDS011;38924;52.134;4.666;2023-05-01T03:12:38;12.93;;;4.47;;
53036;SDS011;38924;52.134;4.666;2023-05-01T03:15:07;5.70;;;5.05;;
53036;SDS011;38924;52.134;4.666;2023-05-01T03:17:33;5.70;;;4.82;;
53036;SDS011;38924;52.134;4.666;2023-05-01T03:19:59;21.63;;;5.18;;
53036;SDS011;38924;52.134;4.666;2023-05-01T03:22:27;5.55;;;4.53;;
53036;SDS011;38924;52.134;4.666;2023-05-01T03:24:53;9.68;;;4.65;;
53036;SDS011;38924;52.134;4.666;2023-05-01T03:27:18;7.07;;;4.15;;
53036;SDS011;38924;52.134;4.666;2023-05-01T03:29:44;4.45;;;4.03;;
53036;SDS011;38924;52.134;4.666;2023-05-01T03:32:11;10.07;;;4.78;;
53036;SDS011;38924;52.134;4.666;2023-05-01T03:34:38;6.65;;;4.90;;
53036;SDS011;38924;52.134;4.666;2023-05-01T03:37:03;7.35;;;4.05;;
53036;SDS011;38924;52.134;4.666;2023-05-01T03:39:29;5.65;;;4.25;;
53036;SDS011;38924;52.134;4.666;2023-05-01T03:42:30;8.40;;;4.50;;
53036;SDS011;38924;52.134;4.666;2023-05-01T03:45:02;9.75;;;4.88;;
53036;SDS011;38924;52.134;4.666;2023-05-01T03:47:28;7.78;;;4.28;;
53036;SDS011;38924;52.134;4.666;2023-05-01T03:49:54;6.07;;;3.85;;
53036;SDS011;38924;52.134;4.666;2023-05-01T03:52:20;6.10;;;4.22;;
53036;SDS011;38924;52.134;4.666;2023-05-01T03:54:46;4.70;;;4.20;;
53036;SDS011;38924;52.134;4.666;2023-05-01T03:59:47;7.68;;;4.32;;
53036;SDS011;38924;52.134;4.666;2023-05-01T04:02:13;9.27;;;3.95;;
53036;SDS011;38924;52.134;4.666;2023-05-01T04:04:39;6.70;;;4.32;;
53036;SDS011;38924;52.134;4.666;2023-05-01T04:07:05;8.73;;;4.13;;
53036;SDS011;38924;52.134;4.666;2023-05-01T04:09:32;12.07;;;3.95;;
53036;SDS011;38924;52.134;4.666;2023-05-01T04:11:57;10.20;;;4.68;;
53036;SDS011;38924;52.134;4.666;2023-05-01T04:14:26;6.03;;;4.18;;
53036;SDS011;38924;52.134;4.666;2023-05-01T04:16:52;8.35;;;4.65;;
53036;SDS011;38924;52.134;4.666;2023-05-01T04:19:18;9.07;;;4.57;;
53036;SDS011;38924;52.134;4.666;2023-05-01T04:21:45;10.45;;;4.57;;
53036;SDS011;38924;52.134;4.666;2023-05-01T04:24:11;7.22;;;4.40;;
53036;SDS011;38924;52.134;4.666;2023-05-01T04:26:37;8.85;;;5.13;;
53036;SDS011;38924;52.134;4.666;2023-05-01T04:29:04;9.77;;;4.60;;
53036;SDS011;38924;52.134;4.666;2023-05-01T04:31:33;7.85;;;3.88;;
53036;SDS011;38924;52.134;4.666;2023-05-01T04:33:59;9.32;;;4.65;;
53036;SDS011;38924;52.134;4.666;2023-05-01T04:36:28;8.63;;;4.63;;
53036;SDS011;38924;52.134;4.666;2023-05-01T04:38:55;8.68;;;4.43;;
53036;SDS011;38924;52.134;4.666;2023-05-01T04:41:20;9.15;;;4.43;;
53036;SDS011;38924;52.134;4.666;2023-05-01T04:43:47;4.85;;;4.45;;
53036;SDS011;38924;52.134;4.666;2023-05-01T04:46:16;5.75;;;4.38;;
53036;SDS011;38924;52.134;4.666;2023-05-01T04:48:41;9.38;;;5.63;;
53036;SDS011;38924;52.134;4.666;2023-05-01T04:51:07;10.02;;;4.10;;
53036;SDS011;38924;52.134;4.666;2023-05-01T04:53:33;8.52;;;4.97;;
53036;SDS011;38924;52.134;4.666;2023-05-01T04:56:00;25.27;;;9.75;;
53036;SDS011;38924;52.134;4.666;2023-05-01T04:58:26;24.83;;;12.27;;
53036;SDS011;38924;52.134;4.666;2023-05-01T05:00:57;13.85;;;7.05;;
53036;SDS011;38924;52.134;4.666;2023-05-01T05:03:23;7.82;;;4.45;;
53036;SDS011;38924;52.134;4.666;2023-05-01T05:05:50;9.27;;;5.15;;
53036;SDS011;38924;52.134;4.666;2023-05-01T05:08:19;6.20;;;4.38;;
53036;SDS011;38924;52.134;4.666;2023-05-01T05:11:05;7.72;;;3.95;;
53036;SDS011;38924;52.134;4.666;2023-05-01T05:13:45;10.00;;;5.88;;
53036;SDS011;38924;52.134;4.666;2023-05-01T05:16:14;8.95;;;4.70;;
53036;SDS011;38924;52.134;4.666;2023-05-01T05:18:40;12.13;;;5.50;;
53036;SDS011;38924;52.134;4.666;2023-05-01T05:21:06;19.90;;;8.23;;
53036;SDS011;38924;52.134;4.666;2023-05-01T05:23:33;17.90;;;7.68;;
53036;SDS011;38924;52.134;4.666;2023-05-01T05:25:59;8.60;;;4.90;;
53036;SDS011;38924;52.134;4.666;2023-05-01T05:28:26;12.75;;;5.50;;
53036;SDS011;38924;52.134;4.666;2023-05-01T05:30:53;17.73;;;7.68;;
53036;SDS011;38924;52.134;4.666;2023-05-01T05:33:19;8.13;;;4.97;;
53036;SDS011;38924;52.134;4.666;2023-05-01T05:35:45;9.95;;;5.32;;
53036;SDS011;38924;52.134;4.666;2023-05-01T05:38:11;8.38;;;4.85;;
53036;SDS011;38924;52.134;4.666;2023-05-01T05:40:39;7.80;;;5.03;;
53036;SDS011;38924;52.134;4.666;2023-05-01T05:43:05;13.45;;;5.05;;
53036;SDS011;38924;52.134;4.666;2023-05-01T05:45:33;7.75;;;4.53;;
53036;SDS011;38924;52.134;4.666;2023-05-01T05:48:00;6.68;;;4.38;;
53036;SDS011;38924;52.134;4.666;2023-05-01T05:50:27;8.68;;;4.40;;
53036;SDS011;38924;52.134;4.666;2023-05-01T05:52:53;8.57;;;4.65;;
53036;SDS011;38924;52.134;4.666;2023-05-01T05:55:18;9.45;;;4.70;;
53036;SDS011;38924;52.134;4.666;2023-05-01T05:57:57;17.35;;;7.18;;
53036;SDS011;38924;52.134;4.666;2023-05-01T06:00:24;30.42;;;15.23;;
53036;SDS011;38924;52.134;4.666;2023-05-01T06:02:50;27.15;;;12.50;;
53036;SDS011;38924;52.134;4.666;2023-05-01T06:05:18;13.95;;;6.68;;
53036;SDS011;38924;52.134;4.666;2023-05-01T06:07:44;8.40;;;4.88;;
53036;SDS011;38924;52.134;4.666;2023-05-01T06:10:09;5.35;;;4.60;;
53036;SDS011;38924;52.134;4.666;2023-05-01T06:12:36;11.52;;;4.72;;
53036;SDS011;38924;52.134;4.666;2023-05-01T06:15:05;11.18;;;5.45;;
53036;SDS011;38924;52.134;4.666;2023-05-01T06:17:34;12.07;;;6.20;;
53036;SDS011;38924;52.134;4.666;2023-05-01T06:20:00;8.73;;;5.07;;
53036;SDS011;38924;52.134;4.666;2023-05-01T06:22:26;9.27;;;4.82;;
53036;SDS011;38924;52.134;4.666;2023-05-01T06:25:09;10.27;;;4.65;;
53036;SDS011;38924;52.134;4.666;2023-05-01T06:27:37;8.50;;;4.55;;
53036;SDS011;38924;52.134;4.666;2023-05-01T06:30:03;11.18;;;5.47;;
53036;SDS011;38924;52.134;4.666;2023-05-01T06:32:30;8.93;;;4.22;;
53036;SDS011;38924;52.134;4.666;2023-05-01T06:37:42;9.02;;;4.63;;
53036;SDS011;38924;52.134;4.666;2023-05-01T06:40:09;9.07;;;5.18;;
53036;SDS011;38924;52.134;4.666;2023-05-01T06:42:38;12.88;;;4.72;;
53036;SDS011;38924;52.134;4.666;2023-05-01T06:45:04;6.88;;;4.25;;
53036;SDS011;38924;52.134;4.666;2023-05-01T06:47:30;8.30;;;4.65;;
53036;SDS011;38924;52.134;4.666;2023-05-01T06:49:56;7.95;;;4.57;;
53036;SDS011;38924;52.134;4.666;2023-05-01T06:52:22;6.57;;;4.22;;
53036;SDS011;38924;52.134;4.666;2023-05-01T06:54:47;10.50;;;4.47;;
53036;SDS011;38924;52.134;4.666;2023-05-01T06:57:13;10.63;;;4.88;;
53036;SDS011;38924;52.134;4.666;2023-05-01T06:59:45;9.50;;;5.20;;
53036;SDS011;38924;52.134;4.666;2023-05-01T07:02:10;12.40;;;4.72;;
53036;SDS011;38924;52.134;4.666;2023-05-01T07:04:36;11.98;;;5.40;;
53036;SDS011;38924;52.134;4.666;2023-05-01T07:07:02;10.02;;;4.60;;
53036;SDS011;38924;52.134;4.666;2023-05-01T07:09:28;8.50;;;4.43;;
53036;SDS011;38924;52.134;4.666;2023-05-01T07:11:54;7.47;;;5.07;;
53036;SDS011;38924;52.134;4.666;2023-05-01T07:14:21;11.43;;;5.25;;
53036;SDS011;38924;52.134;4.666;2023-05-01T07:16:47;10.27;;;4.43;;
53036;SDS011;38924;52.134;4.666;2023-05-01T07:19:13;9.68;;;4.65;;
53036;SDS011;38924;52.134;4.666;2023-05-01T07:21:39;13.38;;;4.88;;
53036;SDS011;38924;52.134;4.666;2023-05-01T07:24:07;10.75;;;4.57;;
53036;SDS011;38924;52.134;4.666;2023-05-01T07:26:32;11.25;;;4.68;;
53036;SDS011;38924;52.134;4.666;2023-05-01T07:28:58;12.27;;;4.95;;
53036;SDS011;38924;52.134;4.666;2023-05-01T07:31:24;12.60;;;5.75;;
53036;SDS011;38924;52.134;4.666;2023-05-01T07:33:49;9.13;;;5.70;;
53036;SDS011;38924;52.134;4.666;2023-05-01T07:36:15;8.93;;;5.88;;
53036;SDS011;38924;52.134;4.666;2023-05-01T07:38:42;13.70;;;6.00;;
53036;SDS011;38924;52.134;4.666;2023-05-01T07:41:09;15.30;;;6.75;;
53036;SDS011;38924;52.134;4.666;2023-05-01T07:43:35;16.45;;;7.47;;
53036;SDS011;38924;52.134;4.666;2023-05-01T07:46:01;15.75;;;6.53;;
53036;SDS011;38924;52.134;4.666;2023-05-01T07:48:27;8.88;;;5.03;;
53036;SDS011;38924;52.134;4.666;2023-05-01T07:50:53;12.93;;;4.90;;
53036;SDS011;38924;52.134;4.666;2023-05-01T07:53:19;8.40;;;5.20;;
53036;SDS011;38924;52.134;4.666;2023-05-01T07:55:47;9.00;;;4.63;;
53036;SDS011;38924;52.134;4.666;2023-05-01T07:58:13;9.77;;;5.43;;
53036;SDS011;38924;52.134;4.666;2023-05-01T08:00:38;8.35;;;5.43;;
53036;SDS011;38924;52.134;4.666;2023-05-01T08:03:07;11.57;;;5.70;;
53036;SDS011;38924;52.134;4.666;2023-05-01T08:05:32;11.50;;;5.88;;
53036;SDS011;38924;52.134;4.666;2023-05-01T08:07:58;18.08;;;6.15;;
53036;SDS011;38924;52.134;4.666;2023-05-01T08:10:23;10.25;;;5.32;;
53036;SDS011;38924;52.134;4.666;2023-05-01T08:12:50;8.52;;;5.45;;
53036;SDS011;38924;52.134;4.666;2023-05-01T08:15:16;8.73;;;4.95;;
53036;SDS011;38924;52.134;4.666;2023-05-01T08:17:41;9.45;;;5.05;;
53036;SDS011;38924;52.134;4.666;2023-05-01T08:20:07;8.95;;;4.85;;
53036;SDS011;38924;52.134;4.666;2023-05-01T08:22:33;11.23;;;5.68;;
53036;SDS011;38924;52.134;4.666;2023-05-01T08:24:58;10.20;;;5.50;;
53036;SDS011;38924;52.134;4.666;2023-05-01T08:27:24;11.00;;;6.15;;
53036;SDS011;38924;52.134;4.666;2023-05-01T08:29:50;11.38;;;5.43;;
53036;SDS011;38924;52.134;4.666;2023-05-01T08:32:17;10.90;;;6.00;;
53036;SDS011;38924;52.134;4.666;2023-05-01T08:34:43;11.00;;;6.53;;
53036;SDS011;38924;52.134;4.666;2023-05-01T08:37:08;11.70;;;6.63;;
53036;SDS011;38924;52.134;4.666;2023-05-01T08:39:34;9.70;;;5.93;;
53036;SDS011;38924;52.134;4.666;2023-05-01T08:42:00;19.23;;;9.18;;
53036;SDS011;38924;52.134;4.666;2023-05-01T08:44:25;13.27;;;7.43;;
53036;SDS011;38924;52.134;4.666;2023-05-01T08:46:54;9.48;;;5.95;;
53036;SDS011;38924;52.134;4.666;2023-05-01T08:49:22;9.82;;;6.25;;
53036;SDS011;38924;52.134;4.666;2023-05-01T08:51:48;22.13;;;6.32;;
53036;SDS011;38924;52.134;4.666;2023-05-01T08:54:17;11.30;;;6.63;;
53036;SDS011;38924;52.134;4.666;2023-05-01T08:56:44;9.45;;;5.43;;
53036;SDS011;38924;52.134;4.666;2023-05-01T08:59:11;12.52;;;6.28;;
53036;SDS011;38924;52.134;4.666;2023-05-01T09:01:38;10.35;;;5.93;;
53036;SDS011;38924;52.134;4.666;2023-05-01T09:04:05;11.65;;;5.93;;
53036;SDS011;38924;52.134;4.666;2023-05-01T09:06:31;13.70;;;6.28;;
53036;SDS011;38924;52.134;4.666;2023-05-01T09:08:57;11.95;;;6.50;;
53036;SDS011;38924;52.134;4.666;2023-05-01T09:11:23;11.38;;;6.78;;
53036;SDS011;38924;52.134;4.666;2023-05-01T09:13:49;19.02;;;6.45;;
53036;SDS011;38924;52.134;4.666;2023-05-01T09:16:15;6.68;;;5.38;;
53036;SDS011;38924;52.134;4.666;2023-05-01T09:18:41;8.90;;;5.68;;
53036;SDS011;38924;52.134;4.666;2023-05-01T09:21:07;11.55;;;6.60;;
53036;SDS011;38924;52.134;4.666;2023-05-01T09:23:33;12.25;;;6.63;;
53036;SDS011;38924;52.134;4.666;2023-05-01T09:26:04;8.60;;;5.65;;
53036;SDS011;38924;52.134;4.666;2023-05-01T09:28:49;13.85;;;6.40;;
53036;SDS011;38924;52.134;4.666;2023-05-01T09:33:52;12.80;;;6.82;;
53036;SDS011;38924;52.134;4.666;2023-05-01T09:36:18;10.48;;;6.55;;
53036;SDS011;38924;52.134;4.666;2023-05-01T09:38:47;12.15;;;6.75;;
53036;SDS011;38924;52.134;4.666;2023-05-01T09:41:12;12.95;;;6.65;;
53036;SDS011;38924;52.134;4.666;2023-05-01T09:43:38;9.68;;;7.00;;
53036;SDS011;38924;52.134;4.666;2023-05-01T09:48:30;13.50;;;7.38;;
53036;SDS011;38924;52.134;4.666;2023-05-01T09:50:58;10.05;;;6.43;;
53036;SDS011;38924;52.134;4.666;2023-05-01T09:53:37;10.80;;;7.18;;
53036;SDS011;38924;52.134;4.666;2023-05-01T09:56:03;15.43;;;7.93;;
53036;SDS011;38924;52.134;4.666;2023-05-01T09:58:29;11.13;;;6.47;;
53036;SDS011;38924;52.134;4.666;2023-05-01T10:00:55;12.60;;;6.85;;
53036;SDS011;38924;52.134;4.666;2023-05-01T10:03:21;15.57;;;7.70;;
53036;SDS011;38924;52.134;4.666;2023-05-01T10:05:46;11.95;;;7.38;;
53036;SDS011;38924;52.134;4.666;2023-05-01T10:08:12;14.07;;;8.25;;
53036;SDS011;38924;52.134;4.666;2023-05-01T10:10:40;16.10;;;8.00;;
53036;SDS011;38924;52.134;4.666;2023-05-01T10:13:15;24.55;;;8.02;;
53036;SDS011;38924;52.134;4.666;2023-05-01T10:15:44;17.05;;;8.68;;
53036;SDS011;38924;52.134;4.666;2023-05-01T10:18:11;13.63;;;8.05;;
53036;SDS011;38924;52.134;4.666;2023-05-01T10:20:36;14.30;;;8.40;;
53036;SDS011;38924;52.134;4.666;2023-05-01T10:23:02;14.18;;;7.68;;
53036;SDS011;38924;52.134;4.666;2023-05-01T10:25:28;15.48;;;8.15;;
53036;SDS011;38924;52.134;4.666;2023-05-01T10:27:55;13.68;;;7.40;;
53036;SDS011;38924;52.134;4.666;2023-05-01T10:30:26;16.92;;;8.82;;
53036;SDS011;38924;52.134;4.666;2023-05-01T10:32:53;13.38;;;7.88;;
53036;SDS011;38924;52.134;4.666;2023-05-01T10:35:25;13.05;;;8.18;;
53036;SDS011;38924;52.134;4.666;2023-05-01T10:37:57;16.25;;;8.25;;
53036;SDS011;38924;52.134;4.666;2023-05-01T10:45:52;12.27;;;8.27;;
53036;SDS011;38924;52.134;4.666;2023-05-01T10:49:04;13.90;;;8.15;;
53036;SDS011;38924;52.134;4.666;2023-05-01T10:51:23;21.05;;;10.05;;
53036;SDS011;38924;52.134;4.666;2023-05-01T10:56:50;13.18;;;7.13;;
53036;SDS011;38924;52.134;4.666;2023-05-01T10:59:16;13.82;;;7.50;;
53036;SDS011;38924;52.134;4.666;2023-05-01T11:01:42;11.95;;;6.93;;
53036;SDS011;38924;52.134;4.666;2023-05-01T11:11:54;13.27;;;6.63;;
53036;SDS011;38924;52.134;4.666;2023-05-01T11:14:20;12.95;;;6.65;;
53036;SDS011;38924;52.134;4.666;2023-05-01T11:16:46;8.63;;;6.43;;
53036;SDS011;38924;52.134;4.666;2023-05-01T11:24:19;15.90;;;7.45;;
53036;SDS011;38924;52.134;4.666;2023-05-01T11:26:55;11.60;;;7.07;;
53036;SDS011;38924;52.134;4.666;2023-05-01T11:29:21;9.73;;;6.60;;
53036;SDS011;38924;52.134;4.666;2023-05-01T11:31:47;18.15;;;7.05;;
53036;SDS011;38924;52.134;4.666;2023-05-01T11:34:15;12.90;;;7.45;;
53036;SDS011;38924;52.134;4.666;2023-05-01T11:36:48;12.18;;;6.28;;
53036;SDS011;38924;52.134;4.666;2023-05-01T11:39:14;13.88;;;7.35;;
53036;SDS011;38924;52.134;4.666;2023-05-01T11:41:45;13.70;;;7.22;;
53036;SDS011;38924;52.134;4.666;2023-05-01T11:44:11;7.47;;;6.30;;
53036;SDS011;38924;52.134;4.666;2023-05-01T11:46:37;8.27;;;6.47;;
53036;SDS011;38924;52.134;4.666;2023-05-01T11:49:03;10.00;;;7.40;;
53036;SDS011;38924;52.134;4.666;2023-05-01T11:51:29;16.67;;;7.90;;
53036;SDS011;38924;52.134;4.666;2023-05-01T11:53:57;12.40;;;6.38;;
53036;SDS011;38924;52.134;4.666;2023-05-01T11:56:23;17.77;;;12.15;;
53036;SDS011;38924;52.134;4.666;2023-05-01T11:58:50;11.13;;;7.70;;
53036;SDS011;38924;52.134;4.666;2023-05-01T12:01:16;15.18;;;7.40;;
53036;SDS011;38924;52.134;4.666;2023-05-01T12:03:42;11.02;;;7.00;;
53036;SDS011;38924;52.134;4.666;2023-05-01T12:06:09;9.43;;;7.10;;
53036;SDS011;38924;52.134;4.666;2023-05-01T12:08:35;11.65;;;6.78;;
53036;SDS011;38924;52.134;4.666;2023-05-01T12:11:01;9.30;;;5.90;;
53036;SDS011;38924;52.134;4.666;2023-05-01T12:13:27;10.65;;;6.40;;
53036;SDS011;38924;52.134;4.666;2023-05-01T12:15:54;7.30;;;6.20;;
53036;SDS011;38924;52.134;4.666;2023-05-01T12:18:20;9.57;;;6.50;;
53036;SDS011;38924;52.134;4.666;2023-05-01T12:20:48;9.32;;;6.60;;
53036;SDS011;38924;52.134;4.666;2023-05-01T12:23:14;8.52;;;6.60;;
53036;SDS011;38924;52.134;4.666;2023-05-01T12:25:40;13.27;;;8.48;;
53036;SDS011;38924;52.134;4.666;2023-05-01T12:28:08;7.50;;;6.65;;
53036;SDS011;38924;52.134;4.666;2023-05-01T12:30:34;10.10;;;7.32;;
53036;SDS011;38924;52.134;4.666;2023-05-01T12:33:06;9.68;;;7.03;;
53036;SDS011;38924;52.134;4.666;2023-05-01T12:35:33;9.35;;;7.85;;
53036;SDS011;38924;52.134;4.666;2023-05-01T12:37:59;10.25;;;9.18;;
53036;SDS011;38924;52.134;4.666;2023-05-01T12:40:25;9.48;;;8.45;;
53036;SDS011;38924;52.134;4.666;2023-05-01T12:42:54;14.77;;;13.27;;
53036;SDS011;38924;52.134;4.666;2023-05-01T12:45:21;15.63;;;14.10;;
53036;SDS011;38924;52.134;4.666;2023-05-01T12:47:47;13.45;;;12.15;;
53036;SDS011;38924;52.134;4.666;2023-05-01T12:50:13;14.88;;;13.48;;
53036;SDS011;38924;52.134;4.666;2023-05-01T12:52:41;19.40;;;17.52;;
53036;SDS011;38924;52.134;4.666;2023-05-01T12:55:07;20.17;;;18.63;;
53036;SDS011;38924;52.134;4.666;2023-05-01T12:57:33;17.33;;;15.45;;
53036;SDS011;38924;52.134;4.666;2023-05-01T13:00:00;16.25;;;15.00;;
53036;SDS011;38924;52.134;4.666;2023-05-01T13:02:32;18.60;;;17.25;;
53036;SDS011;38924;52.134;4.666;2023-05-01T13:05:04;17.75;;;16.42;;
53036;SDS011;38924;52.134;4.666;2023-05-01T13:07:30;16.02;;;14.48;;
53036;SDS011;38924;52.134;4.666;2023-05-01T13:09:57;19.30;;;17.25;;
53036;SDS011;38924;52.134;4.666;2023-05-01T13:12:23;15.15;;;13.95;;
53036;SDS011;38924;52.134;4.666;2023-05-01T13:14:49;12.52;;;11.45;;
53036;SDS011;38924;52.134;4.666;2023-05-01T13:17:25;15.43;;;14.23;;
53036;SDS011;38924;52.134;4.666;2023-05-01T13:19:58;14.52;;;13.15;;
53036;SDS011;38924;52.134;4.666;2023-05-01T13:22:30;17.27;;;15.65;;
53036;SDS011;38924;52.134;4.666;2023-05-01T13:24:57;17.10;;;15.80;;
53036;SDS011;38924;52.134;4.666;2023-05-01T13:27:22;17.83;;;16.63;;
53036;SDS011;38924;52.134;4.666;2023-05-01T13:29:52;14.80;;;13.40;;
53036;SDS011;38924;52.134;4.666;2023-05-01T13:32:19;13.57;;;12.48;;
53036;SDS011;38924;52.134;4.666;2023-05-01T13:34:45;16.52;;;15.10;;
53036;SDS011;38924;52.134;4.666;2023-05-01T13:37:11;18.08;;;16.70;;
53036;SDS011;38924;52.134;4.666;2023-05-01T13:39:41;14.15;;;12.90;;
53036;SDS011;38924;52.134;4.666;2023-05-01T13:42:07;11.43;;;10.25;;
53036;SDS011;38924;52.134;4.666;2023-05-01T13:44:41;15.68;;;13.50;;
53036;SDS011;38924;52.134;4.666;2023-05-01T13:47:07;11.05;;;9.68;;
53036;SDS011;38924;52.134;4.666;2023-05-01T13:49:34;13.73;;;9.90;;
53036;SDS011;38924;52.134;4.666;2023-05-01T13:52:04;9.30;;;8.02;;
53036;SDS011;38924;52.134;4.666;2023-05-01T13:54:30;12.07;;;7.88;;
53036;SDS011;38924;52.134;4.666;2023-05-01T13:56:56;7.85;;;7.07;;
53036;SDS011;38924;52.134;4.666;2023-05-01T13:59:22;9.40;;;7.00;;
53036;SDS011;38924;52.134;4.666;2023-05-01T14:01:48;12.35;;;7.90;;
53036;SDS011;38924;52.134;4.666;2023-05-01T14:04:14;15.27;;;7.88;;
53036;SDS011;38924;52.134;4.666;2023-05-01T14:06:41;11.10;;;7.18;;
53036;SDS011;38924;52.134;4.666;2023-05-01T14:09:09;9.10;;;8.15;;
53036;SDS011;38924;52.134;4.666;2023-05-01T14:11:45;12.10;;;8.75;;
53036;SDS011;38924;52.134;4.666;2023-05-01T14:14:13;7.32;;;6.45;;
53036;SDS011;38924;52.134;4.666;2023-05-01T14:16:39;10.05;;;8.90;;
53036;SDS011;38924;52.134;4.666;2023-05-01T14:19:05;10.75;;;8.75;;
53036;SDS011;38924;52.134;4.666;2023-05-01T14:21:31;10.00;;;9.02;;
53036;SDS011;38924;52.134;4.666;2023-05-01T14:24:01;9.73;;;8.88;;
53036;SDS011;38924;52.134;4.666;2023-05-01T14:26:28;11.55;;;8.45;;
53036;SDS011;38924;52.134;4.666;2023-05-01T14:28:54;10.45;;;9.05;;
53036;SDS011;38924;52.134;4.666;2023-05-01T14:33:45;10.85;;;9.88;;
53036;SDS011;38924;52.134;4.666;2023-05-01T14:36:12;8.73;;;7.82;;
53036;SDS011;38924;52.134;4.666;2023-05-01T14:38:38;10.77;;;9.80;;
53036;SDS011;38924;52.134;4.666;2023-05-01T14:41:10;9.23;;;8.43;;
53036;SDS011;38924;52.134;4.666;2023-05-01T14:43:36;10.63;;;9.35;;
53036;SDS011;38924;52.134;4.666;2023-05-01T14:46:05;8.75;;;7.88;;
53036;SDS011;38924;52.134;4.666;2023-05-01T14:48:33;9.45;;;8.40;;
53036;SDS011;38924;52.134;4.666;2023-05-01T14:50:59;8.10;;;7.35;;
53036;SDS011;38924;52.134;4.666;2023-05-01T14:53:25;10.38;;;8.52;;
53036;SDS011;38924;52.134;4.666;2023-05-01T14:55:52;14.15;;;9.80;;
53036;SDS011;38924;52.134;4.666;2023-05-01T14:58:18;11.43;;;10.27;;
53036;SDS011;38924;52.134;4.666;2023-05-01T15:00:44;13.75;;;9.85;;
53036;SDS011;38924;52.134;4.666;2023-05-01T15:03:09;10.95;;;9.88;;
53036;SDS011;38924;52.134;4.666;2023-05-01T15:05:35;11.15;;;9.10;;
53036;SDS011;38924;52.134;4.666;2023-05-01T15:08:02;12.93;;;8.98;;
53036;SDS011;38924;52.134;4.666;2023-05-01T15:10:30;10.95;;;8.88;;
53036;SDS011;38924;52.134;4.666;2023-05-01T15:12:56;12.57;;;8.48;;
53036;SDS011;38924;52.134;4.666;2023-05-01T15:15:22;10.25;;;9.25;;
53036;SDS011;38924;52.134;4.666;2023-05-01T15:17:48;12.57;;;10.43;;
53036;SDS011;38924;52.134;4.666;2023-05-01T15:20:13;14.57;;;10.27;;
53036;SDS011;38924;52.134;4.666;2023-05-01T15:22:39;10.73;;;9.45;;
53036;SDS011;38924;52.134;4.666;2023-05-01T15:25:06;12.68;;;9.48;;
53036;SDS011;38924;52.134;4.666;2023-05-01T15:27:31;12.63;;;8.88;;
53036;SDS011;38924;52.134;4.666;2023-05-01T15:29:57;11.48;;;10.25;;
53036;SDS011;38924;52.134;4.666;2023-05-01T15:32:23;10.75;;;9.65;;